Campanya meteocatpedra

Dades EMA la Quar

?
?
Resum diari 22:30 TU
Dades diàries de l'estació meteorològica
Temperatura mitjana 20.9 °C
Temperatura màxima 29.9 °C 15:13 TU
Temperatura mínima 13.6 °C 3:36 TU
Humitat relativa mitjana 55%
Precipitació acumulada 0.0 mm
Ratxa màxima del vent (10 m) 18.7 km/h - 191º 10:31 TU
Pressió atmosfèrica mitjana 1018.3 hPa

El tram horari està expressat en Temps Universal (TU). Cal sumar una hora en horari d'hivern i dues en horari d'estiu per passar a l'hora oficial.

la Quar

Metadades estació meteorol´gica
Municipi La Quar
Comarca Berguedà
Altitud 873 m
Data alta 13.03.1996
Estat actual Operativa
Dades de període
Període
TU
TM
°C
TX
°C
TN
°C
HRM
%
PPT
mm
VVM (10 m)
km/h
DVM (10 m)
graus
VVX (10 m)
km/h
PM
hPa
00:00 - 00:30 14.1 14.4 13.9 82 0.0 2.9 32 9.0 1021.8
00:30 - 01:00 14.5 14.7 14.3 82 0.0 5.8 281 9.0 1021.7
01:00 - 01:30 14.6 14.9 14.3 81 0.0 2.9 345 5.8 1021.4
01:30 - 02:00 14.2 14.2 14.1 82 0.0 2.9 346 6.8 1021.5
02:00 - 02:30 14.1 14.5 13.9 82 0.0 4.0 5 8.3 1021.4
02:30 - 03:00 14.5 15.1 14.2 80 0.0 2.5 357 5.4 1021.2
03:00 - 03:30 14.5 14.7 14.1 79 0.0 1.8 354 5.8 1021.1
03:30 - 04:00 14.2 15.0 13.6 78 0.0 2.2 346 9.0 1021.3
04:00 - 04:30 15.3 15.6 15.0 70 0.0 2.9 350 6.5 1020.9
04:30 - 05:00 14.2 15.2 13.8 72 0.0 2.2 355 6.8 1021.5
05:00 - 05:30 14.6 15.2 14.0 73 0.0 2.2 4 5.4 1021.5
05:30 - 06:00 16.5 17.7 15.2 70 0.0 0.7 13 4.0 1020.8
06:00 - 06:30 17.6 17.8 17.3 66 0.0 1.8 199 5.4 1020.4
06:30 - 07:00 19.4 20.9 17.7 63 0.0 2.2 186 6.8 1019.8
07:00 - 07:30 21.4 21.9 20.7 53 0.0 3.2 196 9.0 1019.1
07:30 - 08:00 22.0 22.3 21.8 50 0.0 4.0 201 10.1 1019.1
08:00 - 08:30 22.3 22.7 22.0 48 0.0 4.3 205 11.2 1019.0
08:30 - 09:00 23.4 23.8 23.0 47 0.0 4.7 197 10.4 1018.6
09:00 - 09:30 23.5 23.8 23.1 46 0.0 6.1 200 14.8 1018.6
09:30 - 10:00 24.2 24.7 23.8 47 0.0 6.1 209 14.4 1018.2
10:00 - 10:30 24.9 25.4 24.3 46 0.0 6.5 214 15.5 1017.7
10:30 - 11:00 25.3 25.9 24.3 44 0.0 6.8 223 18.7 1017.4
11:00 - 11:30 25.8 26.9 25.2 42 0.0 6.8 230 17.6 1016.9
11:30 - 12:00 26.8 27.7 26.1 40 0.0 5.8 210 16.2 1016.4
12:00 - 12:30 26.9 27.7 26.5 38 0.0 6.1 222 18.7 1016.2
12:30 - 13:00 27.5 28.5 26.2 36 0.0 6.1 214 16.2 1015.8
13:00 - 13:30 27.6 28.4 27.0 36 0.0 7.2 241 17.3 1015.6
13:30 - 14:00 28.2 29.0 27.3 34 0.0 5.8 218 16.2 1015.2
14:00 - 14:30 28.2 29.1 27.2 34 0.0 7.2 221 17.6 1014.9
14:30 - 15:00 28.8 29.5 28.1 33 0.0 5.8 230 16.2 1014.4
15:00 - 15:30 28.6 29.9 26.6 33 0.0 4.7 200 18.0 1014.3
15:30 - 16:00 25.8 26.5 25.2 39 0.0 1.4 196 10.4 1015.3
16:00 - 16:30 24.8 25.2 24.5 42 0.0 1.1 236 7.2 1015.6
16:30 - 17:00 24.9 25.6 24.1 42 0.0 1.4 188 7.2 1015.4
17:00 - 17:30 25.7 26.0 25.4 40 0.0 3.2 211 11.2 1015.2
17:30 - 18:00 25.1 25.7 24.0 40 0.0 4.3 221 13.7 1015.4
18:00 - 18:30 23.0 23.9 22.2 44 0.0 6.1 227 14.0 1016.2
18:30 - 19:00 21.1 22.2 20.2 48 0.0 6.1 242 11.5 1017.1
19:00 - 19:30 19.6 20.3 19.0 49 0.0 6.1 250 10.1 1017.9
19:30 - 20:00 18.2 19.0 17.6 53 0.0 4.3 244 9.7 1018.6
20:00 - 20:30 17.3 17.7 17.0 57 0.0 4.3 263 7.6 1019.0
20:30 - 21:00 17.6 18.0 17.1 56 0.0 5.4 270 8.3 1019.0
21:00 - 21:30 17.0 17.6 16.3 58 0.0 3.2 300 5.8 1019.1
21:30 - 22:00 16.4 16.6 16.3 60 0.0 2.9 340 6.1 1019.1
22:00 - 22:30 16.1 16.5 15.9 61 0.0 2.5 346 5.4 1019.0
22:30 - 23:00 (s/d) (s/d) (s/d) (s/d) (s/d) (s/d) (s/d) (s/d) (s/d)
23:00 - 23:30 (s/d) (s/d) (s/d) (s/d) (s/d) (s/d) (s/d) (s/d) (s/d)

Les dades en taronja només han passat un control de qualitat automàtic. Resta pendent la seva validació definitiva.